sensor_id;sensor_type;location;lat;lon;timestamp;noise_LAeq;noise_LA_min;noise_LA_max;noise_LA01;noise_LA95
59284;Laerm;45056;47.602;9.886;2023-06-10T00:00:04;42.41;34.69;54.58;;
59284;Laerm;45056;47.602;9.886;2023-06-10T00:02:35;40.44;33.90;55.97;;
59284;Laerm;45056;47.602;9.886;2023-06-10T00:05:03;40.17;35.94;52.56;;
59284;Laerm;45056;47.602;9.886;2023-06-10T00:07:32;39.75;34.31;52.23;;
59284;Laerm;45056;47.602;9.886;2023-06-10T00:10:00;39.94;34.31;52.26;;
59284;Laerm;45056;47.602;9.886;2023-06-10T00:12:31;38.93;33.90;44.11;;
59284;Laerm;45056;47.602;9.886;2023-06-10T00:15:07;41.13;34.31;58.08;;
59284;Laerm;45056;47.602;9.886;2023-06-10T00:17:36;38.73;34.31;41.89;;
59284;Laerm;45056;47.602;9.886;2023-06-10T00:20:08;38.83;34.69;42.88;;
59284;Laerm;45056;47.602;9.886;2023-06-10T00:22:38;38.35;33.44;40.98;;
59284;Laerm;45056;47.602;9.886;2023-06-10T00:25:09;38.17;34.31;40.54;;
59284;Laerm;45056;47.602;9.886;2023-06-10T00:27:37;40.81;34.69;54.87;;
59284;Laerm;45056;47.602;9.886;2023-06-10T00:30:06;40.67;34.69;53.96;;
59284;Laerm;45056;47.602;9.886;2023-06-10T00:32:37;38.94;33.90;45.42;;
59284;Laerm;45056;47.602;9.886;2023-06-10T00:35:06;38.37;33.44;43.04;;
59284;Laerm;45056;47.602;9.886;2023-06-10T00:37:34;38.94;34.31;44.19;;
59284;Laerm;45056;47.602;9.886;2023-06-10T00:40:03;38.52;35.04;41.53;;
59284;Laerm;45056;47.602;9.886;2023-06-10T00:42:32;39.11;34.69;45.11;;
59284;Laerm;45056;47.602;9.886;2023-06-10T00:45:00;39.72;35.86;46.05;;
59284;Laerm;45056;47.602;9.886;2023-06-10T00:47:29;43.12;35.04;56.41;;
59284;Laerm;45056;47.602;9.886;2023-06-10T00:50:00;39.85;34.69;47.84;;
59284;Laerm;45056;47.602;9.886;2023-06-10T00:52:29;39.40;34.69;45.07;;
59284;Laerm;45056;47.602;9.886;2023-06-10T00:54:58;38.41;34.31;43.39;;
59284;Laerm;45056;47.602;9.886;2023-06-10T00:57:27;38.40;34.31;43.77;;
59284;Laerm;45056;47.602;9.886;2023-06-10T00:59:57;42.03;33.90;56.02;;
59284;Laerm;45056;47.602;9.886;2023-06-10T01:02:25;41.64;34.69;55.77;;
59284;Laerm;45056;47.602;9.886;2023-06-10T01:04:53;39.60;35.36;45.48;;
59284;Laerm;45056;47.602;9.886;2023-06-10T01:07:28;39.13;34.69;45.80;;
59284;Laerm;45056;47.602;9.886;2023-06-10T01:10:05;39.43;34.69;43.68;;
59284;Laerm;45056;47.602;9.886;2023-06-10T01:12:46;38.39;34.31;47.48;;
59284;Laerm;45056;47.602;9.886;2023-06-10T01:15:19;39.68;34.31;54.44;;
59284;Laerm;45056;47.602;9.886;2023-06-10T01:17:57;38.81;34.69;44.94;;
59284;Laerm;45056;47.602;9.886;2023-06-10T01:20:26;38.84;33.90;43.86;;
59284;Laerm;45056;47.602;9.886;2023-06-10T01:22:57;38.49;34.69;44.51;;
59284;Laerm;45056;47.602;9.886;2023-06-10T01:25:27;39.11;33.90;44.23;;
59284;Laerm;45056;47.602;9.886;2023-06-10T01:28:05;38.30;34.69;41.96;;
59284;Laerm;45056;47.602;9.886;2023-06-10T01:30:46;41.46;35.66;55.67;;
59284;Laerm;45056;47.602;9.886;2023-06-10T01:33:25;40.01;34.69;51.34;;
59284;Laerm;45056;47.602;9.886;2023-06-10T01:35:58;41.72;35.04;56.88;;
59284;Laerm;45056;47.602;9.886;2023-06-10T01:38:33;38.90;35.36;43.68;;
59284;Laerm;45056;47.602;9.886;2023-06-10T01:41:06;38.28;35.04;45.01;;
59284;Laerm;45056;47.602;9.886;2023-06-10T01:43:38;38.78;35.04;44.19;;
59284;Laerm;45056;47.602;9.886;2023-06-10T01:46:06;42.21;34.69;57.77;;
59284;Laerm;45056;47.602;9.886;2023-06-10T01:48:34;40.02;33.97;57.42;;
59284;Laerm;45056;47.602;9.886;2023-06-10T01:51:03;40.28;35.04;51.75;;
59284;Laerm;45056;47.602;9.886;2023-06-10T01:53:32;39.08;35.04;47.16;;
59284;Laerm;45056;47.602;9.886;2023-06-10T01:56:01;40.43;34.31;50.99;;
59284;Laerm;45056;47.602;9.886;2023-06-10T01:58:29;39.09;35.04;44.08;;
59284;Laerm;45056;47.602;9.886;2023-06-10T02:00:57;43.69;35.04;55.91;;
59284;Laerm;45056;47.602;9.886;2023-06-10T02:03:25;39.82;35.36;50.49;;
59284;Laerm;45056;47.602;9.886;2023-06-10T02:05:53;38.87;34.69;46.10;;
59284;Laerm;45056;47.602;9.886;2023-06-10T02:08:21;38.30;34.31;40.89;;
59284;Laerm;45056;47.602;9.886;2023-06-10T02:10:51;38.61;35.01;41.30;;
59284;Laerm;45056;47.602;9.886;2023-06-10T02:13:19;48.64;35.04;64.80;;
59284;Laerm;45056;47.602;9.886;2023-06-10T02:15:47;40.01;33.90;58.44;;
59284;Laerm;45056;47.602;9.886;2023-06-10T02:18:15;40.61;35.66;51.03;;
59284;Laerm;45056;47.602;9.886;2023-06-10T02:20:47;38.76;35.04;44.07;;
59284;Laerm;45056;47.602;9.886;2023-06-10T02:23:15;40.73;36.20;51.50;;
59284;Laerm;45056;47.602;9.886;2023-06-10T02:25:43;38.56;35.04;41.89;;
59284;Laerm;45056;47.602;9.886;2023-06-10T02:28:12;38.78;35.04;42.85;;
59284;Laerm;45056;47.602;9.886;2023-06-10T02:30:42;41.59;35.04;54.14;;
59284;Laerm;45056;47.602;9.886;2023-06-10T02:33:10;43.46;35.94;56.66;;
59284;Laerm;45056;47.602;9.886;2023-06-10T02:35:38;40.86;37.12;51.17;;
59284;Laerm;45056;47.602;9.886;2023-06-10T02:38:07;39.35;35.66;47.02;;
59284;Laerm;45056;47.602;9.886;2023-06-10T02:40:35;39.68;35.36;47.55;;
59284;Laerm;45056;47.602;9.886;2023-06-10T02:43:03;39.62;35.04;48.48;;
59284;Laerm;45056;47.602;9.886;2023-06-10T02:45:32;41.30;35.66;55.03;;
59284;Laerm;45056;47.602;9.886;2023-06-10T02:48:00;42.50;35.94;54.77;;
59284;Laerm;45056;47.602;9.886;2023-06-10T02:50:28;40.60;35.94;51.08;;
59284;Laerm;45056;47.602;9.886;2023-06-10T02:52:56;38.95;35.66;45.89;;
59284;Laerm;45056;47.602;9.886;2023-06-10T02:55:24;39.93;36.20;51.72;;
59284;Laerm;45056;47.602;9.886;2023-06-10T02:57:52;41.64;35.36;58.01;;
59284;Laerm;45056;47.602;9.886;2023-06-10T03:00:21;44.33;35.66;55.68;;
59284;Laerm;45056;47.602;9.886;2023-06-10T03:02:51;40.66;35.36;51.81;;
59284;Laerm;45056;47.602;9.886;2023-06-10T03:05:23;42.33;35.66;55.52;;
59284;Laerm;45056;47.602;9.886;2023-06-10T03:07:51;40.63;35.94;52.15;;
59284;Laerm;45056;47.602;9.886;2023-06-10T03:10:20;39.72;35.66;48.39;;
59284;Laerm;45056;47.602;9.886;2023-06-10T03:12:48;41.90;37.12;53.42;;
59284;Laerm;45056;47.602;9.886;2023-06-10T03:15:16;41.15;37.52;54.19;;
59284;Laerm;45056;47.602;9.886;2023-06-10T03:17:44;41.14;36.91;52.36;;
59284;Laerm;45056;47.602;9.886;2023-06-10T03:20:13;41.52;37.12;53.42;;
59284;Laerm;45056;47.602;9.886;2023-06-10T03:22:42;42.07;36.20;52.67;;
59284;Laerm;45056;47.602;9.886;2023-06-10T03:25:10;39.64;35.94;44.27;;
59284;Laerm;45056;47.602;9.886;2023-06-10T03:27:41;41.57;35.66;51.50;;
59284;Laerm;45056;47.602;9.886;2023-06-10T03:30:11;42.47;36.69;57.59;;
59284;Laerm;45056;47.602;9.886;2023-06-10T03:32:40;43.97;37.32;59.55;;
59284;Laerm;45056;47.602;9.886;2023-06-10T03:35:08;41.51;37.12;52.19;;
59284;Laerm;45056;47.602;9.886;2023-06-10T03:37:38;46.23;35.94;63.38;;
59284;Laerm;45056;47.602;9.886;2023-06-10T03:40:08;45.44;37.32;63.78;;
59284;Laerm;45056;47.602;9.886;2023-06-10T03:42:36;41.85;36.20;49.60;;
59284;Laerm;45056;47.602;9.886;2023-06-10T03:45:06;44.07;37.12;57.11;;
59284;Laerm;45056;47.602;9.886;2023-06-10T03:47:35;43.56;37.12;57.76;;
59284;Laerm;45056;47.602;9.886;2023-06-10T03:50:04;43.90;36.69;59.39;;
59284;Laerm;45056;47.602;9.886;2023-06-10T03:52:32;43.07;37.88;58.36;;
59284;Laerm;45056;47.602;9.886;2023-06-10T03:55:02;49.01;37.32;64.54;;
59284;Laerm;45056;47.602;9.886;2023-06-10T03:57:30;43.40;36.91;56.94;;
59284;Laerm;45056;47.602;9.886;2023-06-10T03:59:59;42.69;36.45;57.45;;
59284;Laerm;45056;47.602;9.886;2023-06-10T04:02:27;43.40;36.69;55.42;;
59284;Laerm;45056;47.602;9.886;2023-06-10T04:04:55;43.35;36.20;59.15;;
59284;Laerm;45056;47.602;9.886;2023-06-10T04:07:23;43.48;37.52;54.17;;
59284;Laerm;45056;47.602;9.886;2023-06-10T04:09:51;42.46;35.66;53.98;;
59284;Laerm;45056;47.602;9.886;2023-06-10T04:12:20;41.20;36.69;48.69;;
59284;Laerm;45056;47.602;9.886;2023-06-10T04:14:48;41.59;37.32;47.26;;
59284;Laerm;45056;47.602;9.886;2023-06-10T04:17:18;42.26;35.94;55.16;;
59284;Laerm;45056;47.602;9.886;2023-06-10T04:19:46;50.87;39.70;65.97;;
59284;Laerm;45056;47.602;9.886;2023-06-10T04:22:14;52.52;40.03;69.00;;
59284;Laerm;45056;47.602;9.886;2023-06-10T04:24:42;50.35;38.05;62.87;;
59284;Laerm;45056;47.602;9.886;2023-06-10T04:27:10;41.98;36.45;52.82;;
59284;Laerm;45056;47.602;9.886;2023-06-10T04:29:40;43.67;37.52;63.24;;
59284;Laerm;45056;47.602;9.886;2023-06-10T04:32:08;48.76;38.67;60.28;;
59284;Laerm;45056;47.602;9.886;2023-06-10T04:34:37;41.91;36.69;59.53;;
59284;Laerm;45056;47.602;9.886;2023-06-10T04:37:06;43.82;37.70;56.96;;
59284;Laerm;45056;47.602;9.886;2023-06-10T04:39:34;43.71;36.69;55.52;;
59284;Laerm;45056;47.602;9.886;2023-06-10T04:42:03;42.40;37.12;51.66;;
59284;Laerm;45056;47.602;9.886;2023-06-10T04:44:31;43.59;36.69;56.99;;
59284;Laerm;45056;47.602;9.886;2023-06-10T04:47:01;43.80;36.45;55.43;;
59284;Laerm;45056;47.602;9.886;2023-06-10T04:49:29;43.74;36.45;56.66;;
59284;Laerm;45056;47.602;9.886;2023-06-10T04:51:58;43.28;37.12;56.68;;
59284;Laerm;45056;47.602;9.886;2023-06-10T04:54:26;44.62;36.69;69.97;;
59284;Laerm;45056;47.602;9.886;2023-06-10T04:56:54;43.25;37.32;53.47;;
59284;Laerm;45056;47.602;9.886;2023-06-10T04:59:22;44.00;37.70;53.95;;
59284;Laerm;45056;47.602;9.886;2023-06-10T05:01:50;46.22;38.81;56.64;;
59284;Laerm;45056;47.602;9.886;2023-06-10T05:04:20;44.14;38.52;52.35;;
59284;Laerm;45056;47.602;9.886;2023-06-10T05:06:48;44.41;38.02;55.45;;
59284;Laerm;45056;47.602;9.886;2023-06-10T05:09:16;45.94;39.34;61.72;;
59284;Laerm;45056;47.602;9.886;2023-06-10T05:11:44;44.38;38.21;58.37;;
59284;Laerm;45056;47.602;9.886;2023-06-10T05:14:13;45.00;38.05;58.41;;
59284;Laerm;45056;47.602;9.886;2023-06-10T05:16:43;45.61;37.52;59.35;;
59284;Laerm;45056;47.602;9.886;2023-06-10T05:19:11;43.26;38.52;54.23;;
59284;Laerm;45056;47.602;9.886;2023-06-10T05:21:40;44.07;38.21;58.98;;
59284;Laerm;45056;47.602;9.886;2023-06-10T05:24:08;42.54;36.91;53.51;;
59284;Laerm;45056;47.602;9.886;2023-06-10T05:26:37;44.58;38.05;56.24;;
59284;Laerm;45056;47.602;9.886;2023-06-10T05:29:05;43.03;37.52;50.87;;
59284;Laerm;45056;47.602;9.886;2023-06-10T05:31:39;45.38;36.45;60.18;;
59284;Laerm;45056;47.602;9.886;2023-06-10T05:34:10;44.05;39.21;54.91;;
59284;Laerm;45056;47.602;9.886;2023-06-10T05:36:40;45.13;40.03;55.44;;
59284;Laerm;45056;47.602;9.886;2023-06-10T05:39:09;44.39;37.32;54.15;;
59284;Laerm;45056;47.602;9.886;2023-06-10T05:41:38;45.04;39.58;53.70;;
59284;Laerm;45056;47.602;9.886;2023-06-10T05:44:05;45.04;39.92;54.34;;
59284;Laerm;45056;47.602;9.886;2023-06-10T05:46:34;45.71;38.95;56.54;;
59284;Laerm;45056;47.602;9.886;2023-06-10T05:49:02;47.82;39.81;63.33;;
59284;Laerm;45056;47.602;9.886;2023-06-10T05:51:30;44.27;39.21;56.75;;
59284;Laerm;45056;47.602;9.886;2023-06-10T05:53:59;49.78;39.21;68.68;;
59284;Laerm;45056;47.602;9.886;2023-06-10T05:56:28;44.97;39.70;53.86;;
59284;Laerm;45056;47.602;9.886;2023-06-10T05:58:56;45.17;39.08;55.07;;
59284;Laerm;45056;47.602;9.886;2023-06-10T06:01:24;47.40;37.12;56.14;;
59284;Laerm;45056;47.602;9.886;2023-06-10T06:03:52;46.83;39.58;61.42;;
59284;Laerm;45056;47.602;9.886;2023-06-10T06:06:20;45.65;39.70;55.44;;
59284;Laerm;45056;47.602;9.886;2023-06-10T06:08:48;45.75;39.81;55.21;;
59284;Laerm;45056;47.602;9.886;2023-06-10T06:11:17;45.88;38.67;58.96;;
59284;Laerm;45056;47.602;9.886;2023-06-10T06:13:45;44.74;39.58;55.94;;
59284;Laerm;45056;47.602;9.886;2023-06-10T06:16:14;45.10;39.70;56.94;;
59284;Laerm;45056;47.602;9.886;2023-06-10T06:18:43;44.96;39.08;56.05;;
59284;Laerm;45056;47.602;9.886;2023-06-10T06:21:11;44.70;39.08;58.79;;
59284;Laerm;45056;47.602;9.886;2023-06-10T06:23:39;45.43;39.70;53.91;;
59284;Laerm;45056;47.602;9.886;2023-06-10T06:26:07;44.88;40.33;53.94;;
59284;Laerm;45056;47.602;9.886;2023-06-10T06:28:36;46.04;39.92;58.61;;
59284;Laerm;45056;47.602;9.886;2023-06-10T06:31:04;45.89;39.46;56.84;;
59284;Laerm;45056;47.602;9.886;2023-06-10T06:33:33;46.23;40.13;56.59;;
59284;Laerm;45056;47.602;9.886;2023-06-10T06:36:01;47.49;40.03;60.08;;
59284;Laerm;45056;47.602;9.886;2023-06-10T06:38:28;45.56;39.92;55.17;;
59284;Laerm;45056;47.602;9.886;2023-06-10T06:40:56;46.16;40.71;55.33;;
59284;Laerm;45056;47.602;9.886;2023-06-10T06:43:29;48.12;38.52;66.72;;
59284;Laerm;45056;47.602;9.886;2023-06-10T06:45:59;47.43;40.98;57.76;;
59284;Laerm;45056;47.602;9.886;2023-06-10T06:48:28;45.98;39.21;61.65;;
59284;Laerm;45056;47.602;9.886;2023-06-10T06:50:56;49.10;39.81;72.17;;
59284;Laerm;45056;47.602;9.886;2023-06-10T06:53:25;45.58;40.13;57.58;;
59284;Laerm;45056;47.602;9.886;2023-06-10T06:55:53;46.71;40.62;60.40;;
59284;Laerm;45056;47.602;9.886;2023-06-10T06:58:21;45.64;40.62;61.59;;
59284;Laerm;45056;47.602;9.886;2023-06-10T07:00:49;47.96;41.46;56.91;;
59284;Laerm;45056;47.602;9.886;2023-06-10T07:03:19;46.37;40.43;57.25;;
59284;Laerm;45056;47.602;9.886;2023-06-10T07:05:47;45.62;40.33;59.84;;
59284;Laerm;45056;47.602;9.886;2023-06-10T07:08:15;50.03;40.96;66.88;;
59284;Laerm;45056;47.602;9.886;2023-06-10T07:10:43;45.85;41.89;54.30;;
59284;Laerm;45056;47.602;9.886;2023-06-10T07:13:11;45.89;39.21;56.71;;
59284;Laerm;45056;47.602;9.886;2023-06-10T07:15:39;46.67;41.06;60.33;;
59284;Laerm;45056;47.602;9.886;2023-06-10T07:18:08;48.62;40.98;63.76;;
59284;Laerm;45056;47.602;9.886;2023-06-10T07:20:37;46.26;40.62;61.28;;
59284;Laerm;45056;47.602;9.886;2023-06-10T07:23:05;46.84;40.33;61.17;;
59284;Laerm;45056;47.602;9.886;2023-06-10T07:25:33;46.30;39.46;55.43;;
59284;Laerm;45056;47.602;9.886;2023-06-10T07:28:02;45.50;40.23;52.42;;
59284;Laerm;45056;47.602;9.886;2023-06-10T07:30:30;47.07;41.38;55.79;;
59284;Laerm;45056;47.602;9.886;2023-06-10T07:32:58;49.89;41.06;63.17;;
59284;Laerm;45056;47.602;9.886;2023-06-10T07:35:26;46.04;40.80;62.72;;
59284;Laerm;45056;47.602;9.886;2023-06-10T07:37:55;46.62;41.30;59.42;;
59284;Laerm;45056;47.602;9.886;2023-06-10T07:40:24;47.23;41.82;62.50;;
59284;Laerm;45056;47.602;9.886;2023-06-10T07:42:52;47.43;41.68;62.02;;
59284;Laerm;45056;47.602;9.886;2023-06-10T07:45:21;45.85;40.03;60.08;;
59284;Laerm;45056;47.602;9.886;2023-06-10T07:47:49;47.66;41.46;58.31;;
59284;Laerm;45056;47.602;9.886;2023-06-10T07:50:17;46.09;41.06;53.85;;
59284;Laerm;45056;47.602;9.886;2023-06-10T07:52:45;46.09;41.30;57.38;;
59284;Laerm;45056;47.602;9.886;2023-06-10T07:55:14;48.48;40.98;59.90;;
59284;Laerm;45056;47.602;9.886;2023-06-10T07:57:42;44.98;39.58;52.02;;
59284;Laerm;45056;47.602;9.886;2023-06-10T08:00:11;49.95;40.23;64.96;;
59284;Laerm;45056;47.602;9.886;2023-06-10T08:02:40;46.71;40.13;58.10;;
59284;Laerm;45056;47.602;9.886;2023-06-10T08:05:08;47.19;40.98;57.69;;
59284;Laerm;45056;47.602;9.886;2023-06-10T08:07:36;46.13;41.22;58.63;;
59284;Laerm;45056;47.602;9.886;2023-06-10T08:10:06;45.77;40.71;58.58;;
59284;Laerm;45056;47.602;9.886;2023-06-10T08:12:37;46.87;40.62;61.20;;
59284;Laerm;45056;47.602;9.886;2023-06-10T08:15:06;49.29;41.53;67.56;;
59284;Laerm;45056;47.602;9.886;2023-06-10T08:17:34;46.07;39.92;62.49;;
59284;Laerm;45056;47.602;9.886;2023-06-10T08:20:03;47.20;41.61;63.80;;
59284;Laerm;45056;47.602;9.886;2023-06-10T08:22:32;46.56;40.98;63.97;;
59284;Laerm;45056;47.602;9.886;2023-06-10T08:25:00;46.38;41.82;54.10;;
59284;Laerm;45056;47.602;9.886;2023-06-10T08:27:28;46.42;41.46;57.70;;
59284;Laerm;45056;47.602;9.886;2023-06-10T08:29:58;50.37;40.71;64.98;;
59284;Laerm;45056;47.602;9.886;2023-06-10T08:32:27;47.14;41.38;62.65;;
59284;Laerm;45056;47.602;9.886;2023-06-10T08:34:55;47.81;40.43;65.19;;
59284;Laerm;45056;47.602;9.886;2023-06-10T08:37:24;46.21;41.22;53.33;;
59284;Laerm;45056;47.602;9.886;2023-06-10T08:39:53;48.29;41.68;61.34;;
59284;Laerm;45056;47.602;9.886;2023-06-10T08:42:24;46.55;40.98;56.84;;
59284;Laerm;45056;47.602;9.886;2023-06-10T08:44:57;46.10;41.06;56.54;;
59284;Laerm;45056;47.602;9.886;2023-06-10T08:47:30;48.95;40.80;64.02;;
59284;Laerm;45056;47.602;9.886;2023-06-10T08:50:04;48.42;41.48;60.39;;
59284;Laerm;45056;47.602;9.886;2023-06-10T08:52:36;46.80;41.41;56.61;;
59284;Laerm;45056;47.602;9.886;2023-06-10T08:55:13;46.43;41.46;57.88;;
59284;Laerm;45056;47.602;9.886;2023-06-10T08:57:42;46.58;40.43;55.34;;
59284;Laerm;45056;47.602;9.886;2023-06-10T09:00:13;50.24;42.93;64.34;;
59284;Laerm;45056;47.602;9.886;2023-06-10T09:02:44;47.06;41.46;56.43;;
59284;Laerm;45056;47.602;9.886;2023-06-10T09:05:13;46.51;40.89;55.56;;
59284;Laerm;45056;47.602;9.886;2023-06-10T09:07:42;45.86;40.80;52.97;;
59284;Laerm;45056;47.602;9.886;2023-06-10T09:10:12;46.66;42.13;56.03;;
59284;Laerm;45056;47.602;9.886;2023-06-10T09:12:40;47.35;40.98;69.27;;
59284;Laerm;45056;47.602;9.886;2023-06-10T09:15:09;46.86;40.98;64.41;;
59284;Laerm;45056;47.602;9.886;2023-06-10T09:17:41;47.58;41.75;70.08;;
59284;Laerm;45056;47.602;9.886;2023-06-10T09:20:10;46.87;40.71;62.57;;
59284;Laerm;45056;47.602;9.886;2023-06-10T09:22:41;49.28;41.53;65.80;;
59284;Laerm;45056;47.602;9.886;2023-06-10T09:25:12;46.68;41.22;53.91;;
59284;Laerm;45056;47.602;9.886;2023-06-10T09:27:46;47.57;41.38;60.01;;
59284;Laerm;45056;47.602;9.886;2023-06-10T09:30:30;51.37;42.35;66.27;;
59284;Laerm;45056;47.602;9.886;2023-06-10T09:33:01;46.87;40.53;57.54;;
59284;Laerm;45056;47.602;9.886;2023-06-10T09:35:31;48.17;39.70;62.73;;
59284;Laerm;45056;47.602;9.886;2023-06-10T09:38:00;46.78;41.38;54.72;;
59284;Laerm;45056;47.602;9.886;2023-06-10T09:40:29;46.81;41.30;63.52;;
59284;Laerm;45056;47.602;9.886;2023-06-10T09:43:00;47.41;41.30;65.49;;
59284;Laerm;45056;47.602;9.886;2023-06-10T09:45:31;46.12;40.03;64.86;;
59284;Laerm;45056;47.602;9.886;2023-06-10T09:48:01;47.25;41.30;57.13;;
59284;Laerm;45056;47.602;9.886;2023-06-10T09:50:33;47.02;41.53;56.75;;
59284;Laerm;45056;47.602;9.886;2023-06-10T09:53:01;49.48;41.26;64.95;;
59284;Laerm;45056;47.602;9.886;2023-06-10T09:55:33;48.79;40.62;60.77;;
59284;Laerm;45056;47.602;9.886;2023-06-10T09:58:01;46.51;41.06;57.18;;
59284;Laerm;45056;47.602;9.886;2023-06-10T10:00:33;47.86;39.92;56.94;;
59284;Laerm;45056;47.602;9.886;2023-06-10T10:03:03;50.98;41.68;62.55;;
59284;Laerm;45056;47.602;9.886;2023-06-10T10:05:31;56.94;43.68;64.59;;
59284;Laerm;45056;47.602;9.886;2023-06-10T10:07:59;47.05;40.23;58.48;;
59284;Laerm;45056;47.602;9.886;2023-06-10T10:10:27;46.46;40.62;61.27;;
59284;Laerm;45056;47.602;9.886;2023-06-10T10:12:56;47.63;41.89;60.02;;
59284;Laerm;45056;47.602;9.886;2023-06-10T10:15:31;49.66;42.19;62.86;;
59284;Laerm;45056;47.602;9.886;2023-06-10T10:18:09;48.30;40.71;68.48;;
59284;Laerm;45056;47.602;9.886;2023-06-10T10:20:47;47.32;40.43;72.26;;
59284;Laerm;45056;47.602;9.886;2023-06-10T10:23:28;47.66;39.08;60.75;;
59284;Laerm;45056;47.602;9.886;2023-06-10T10:26:03;49.13;40.71;63.59;;
59284;Laerm;45056;47.602;9.886;2023-06-10T10:28:41;47.36;40.03;62.82;;
59284;Laerm;45056;47.602;9.886;2023-06-10T10:31:16;47.59;40.62;59.72;;
59284;Laerm;45056;47.602;9.886;2023-06-10T10:33:58;48.89;41.53;61.12;;
59284;Laerm;45056;47.602;9.886;2023-06-10T10:36:27;47.27;41.30;58.18;;
59284;Laerm;45056;47.602;9.886;2023-06-10T10:38:57;47.54;41.30;59.47;;
59284;Laerm;45056;47.602;9.886;2023-06-10T10:41:31;45.77;40.13;60.20;;
59284;Laerm;45056;47.602;9.886;2023-06-10T10:44:01;46.19;40.80;55.24;;
59284;Laerm;45056;47.602;9.886;2023-06-10T10:46:42;49.82;41.53;67.64;;
59284;Laerm;45056;47.602;9.886;2023-06-10T10:49:15;47.79;41.75;56.32;;
59284;Laerm;45056;47.602;9.886;2023-06-10T10:51:56;49.93;40.71;65.11;;
59284;Laerm;45056;47.602;9.886;2023-06-10T10:54:33;48.24;39.92;65.26;;
59284;Laerm;45056;47.602;9.886;2023-06-10T10:57:15;47.93;40.33;62.38;;
59284;Laerm;45056;47.602;9.886;2023-06-10T10:59:56;48.96;40.53;60.99;;
59284;Laerm;45056;47.602;9.886;2023-06-10T11:02:39;50.20;41.06;67.31;;
59284;Laerm;45056;47.602;9.886;2023-06-10T11:05:13;45.64;39.58;54.87;;
59284;Laerm;45056;47.602;9.886;2023-06-10T11:07:54;46.37;39.92;58.35;;
59284;Laerm;45056;47.602;9.886;2023-06-10T11:10:30;46.49;40.80;55.41;;
59284;Laerm;45056;47.602;9.886;2023-06-10T11:12:59;46.50;39.92;59.09;;
59284;Laerm;45056;47.602;9.886;2023-06-10T11:15:29;46.49;40.53;66.21;;
59284;Laerm;45056;47.602;9.886;2023-06-10T11:18:09;47.04;40.13;58.45;;
59284;Laerm;45056;47.602;9.886;2023-06-10T11:20:55;46.15;39.92;55.63;;
59284;Laerm;45056;47.602;9.886;2023-06-10T11:23:38;50.62;40.23;69.76;;
59284;Laerm;45056;47.602;9.886;2023-06-10T11:26:15;48.34;39.21;63.32;;
59284;Laerm;45056;47.602;9.886;2023-06-10T11:29:08;47.71;38.95;62.58;;
59284;Laerm;45056;47.602;9.886;2023-06-10T11:31:45;46.87;40.13;59.68;;
59284;Laerm;45056;47.602;9.886;2023-06-10T11:34:23;46.80;40.13;59.42;;
59284;Laerm;45056;47.602;9.886;2023-06-10T11:36:53;46.45;40.33;61.28;;
59284;Laerm;45056;47.602;9.886;2023-06-10T11:39:22;47.60;40.98;60.83;;
59284;Laerm;45056;47.602;9.886;2023-06-10T11:41:53;44.74;40.13;53.00;;
59284;Laerm;45056;47.602;9.886;2023-06-10T11:44:27;45.15;40.23;53.39;;
59284;Laerm;45056;47.602;9.886;2023-06-10T11:46:56;47.29;40.71;57.30;;
59284;Laerm;45056;47.602;9.886;2023-06-10T11:49:24;46.83;40.13;60.91;;
59284;Laerm;45056;47.602;9.886;2023-06-10T11:54:22;47.15;41.22;57.86;;
59284;Laerm;45056;47.602;9.886;2023-06-10T11:56:57;50.27;41.46;64.30;;
59284;Laerm;45056;47.602;9.886;2023-06-10T11:59:28;46.33;40.62;60.86;;
59284;Laerm;45056;47.602;9.886;2023-06-10T12:01:56;51.72;42.41;65.93;;
59284;Laerm;45056;47.602;9.886;2023-06-10T12:04:24;52.10;41.03;69.01;;
59284;Laerm;45056;47.602;9.886;2023-06-10T12:06:55;44.80;38.95;53.35;;
59284;Laerm;45056;47.602;9.886;2023-06-10T12:09:26;45.54;40.89;55.11;;
59284;Laerm;45056;47.602;9.886;2023-06-10T12:11:58;47.91;40.33;59.44;;
59284;Laerm;45056;47.602;9.886;2023-06-10T12:14:53;45.98;40.71;54.47;;
59284;Laerm;45056;47.602;9.886;2023-06-10T12:17:35;47.23;39.92;57.18;;
59284;Laerm;45056;47.602;9.886;2023-06-10T12:20:06;46.21;40.03;60.28;;
59284;Laerm;45056;47.602;9.886;2023-06-10T12:22:42;45.63;40.13;55.72;;
59284;Laerm;45056;47.602;9.886;2023-06-10T12:25:12;46.20;40.80;56.51;;
59284;Laerm;45056;47.602;9.886;2023-06-10T12:27:51;44.73;40.03;55.90;;
59284;Laerm;45056;47.602;9.886;2023-06-10T12:30:21;45.76;40.45;60.94;;
59284;Laerm;45056;47.602;9.886;2023-06-10T12:32:51;46.00;39.92;56.86;;
59284;Laerm;45056;47.602;9.886;2023-06-10T12:35:22;48.36;40.23;62.38;;
59284;Laerm;45056;47.602;9.886;2023-06-10T12:37:59;49.30;40.13;68.29;;
59284;Laerm;45056;47.602;9.886;2023-06-10T12:40:30;48.84;41.22;70.16;;
59284;Laerm;45056;47.602;9.886;2023-06-10T12:42:59;46.49;39.70;59.29;;
59284;Laerm;45056;47.602;9.886;2023-06-10T12:45:28;46.03;38.37;58.31;;
59284;Laerm;45056;47.602;9.886;2023-06-10T12:48:07;46.09;40.33;56.41;;
59284;Laerm;45056;47.602;9.886;2023-06-10T12:50:37;47.91;39.46;60.36;;
59284;Laerm;45056;47.602;9.886;2023-06-10T12:53:08;46.08;39.46;61.38;;
59284;Laerm;45056;47.602;9.886;2023-06-10T12:55:38;50.39;40.71;70.67;;
59284;Laerm;45056;47.602;9.886;2023-06-10T12:58:06;50.74;40.33;64.62;;
59284;Laerm;45056;47.602;9.886;2023-06-10T13:00:34;47.50;39.08;59.26;;
59284;Laerm;45056;47.602;9.886;2023-06-10T13:03:04;46.64;38.95;55.07;;
59284;Laerm;45056;47.602;9.886;2023-06-10T13:05:34;45.58;39.81;55.07;;
59284;Laerm;45056;47.602;9.886;2023-06-10T13:08:04;45.39;39.58;53.14;;
59284;Laerm;45056;47.602;9.886;2023-06-10T13:10:34;46.42;40.43;57.63;;
59284;Laerm;45056;47.602;9.886;2023-06-10T13:13:03;46.37;40.33;57.16;;
59284;Laerm;45056;47.602;9.886;2023-06-10T13:15:32;50.45;39.21;70.49;;
59284;Laerm;45056;47.602;9.886;2023-06-10T13:18:03;47.88;41.38;62.36;;
59284;Laerm;45056;47.602;9.886;2023-06-10T13:20:32;46.81;40.03;58.54;;
59284;Laerm;45056;47.602;9.886;2023-06-10T13:23:00;45.03;40.03;53.50;;
59284;Laerm;45056;47.602;9.886;2023-06-10T13:25:28;47.04;41.46;59.26;;
59284;Laerm;45056;47.602;9.886;2023-06-10T13:27:57;47.43;40.62;61.41;;
59284;Laerm;45056;47.602;9.886;2023-06-10T13:30:25;45.59;39.08;56.82;;
59284;Laerm;45056;47.602;9.886;2023-06-10T13:32:54;45.27;39.58;56.01;;
59284;Laerm;45056;47.602;9.886;2023-06-10T13:35:22;45.83;39.58;55.93;;
59284;Laerm;45056;47.602;9.886;2023-06-10T13:37:50;43.93;39.58;53.21;;
59284;Laerm;45056;47.602;9.886;2023-06-10T13:40:18;47.55;40.98;60.74;;
59284;Laerm;45056;47.602;9.886;2023-06-10T13:42:46;50.63;41.53;76.16;;
59284;Laerm;45056;47.602;9.886;2023-06-10T13:45:18;47.22;39.81;59.31;;
59284;Laerm;45056;47.602;9.886;2023-06-10T13:47:46;46.71;40.80;61.98;;
59284;Laerm;45056;47.602;9.886;2023-06-10T13:50:14;47.54;41.22;60.01;;
59284;Laerm;45056;47.602;9.886;2023-06-10T13:52:42;46.90;41.06;56.20;;
59284;Laerm;45056;47.602;9.886;2023-06-10T13:55:10;46.96;40.62;58.95;;
59284;Laerm;45056;47.602;9.886;2023-06-10T13:57:38;53.68;39.34;75.14;;
59284;Laerm;45056;47.602;9.886;2023-06-10T14:00:08;46.38;40.80;55.84;;
59284;Laerm;45056;47.602;9.886;2023-06-10T14:02:38;45.37;39.70;55.41;;